sensor_id;sensor_type;location;lat;lon;timestamp;pressure;altitude;pressure_sealevel;temperature;humidity
12471;BME280;36499;46.484;13.832;2024-02-04T00:00:55;93618.72;;;3.23;100.00
12471;BME280;36499;46.484;13.832;2024-02-04T00:03:22;93613.47;;;3.25;100.00
12471;BME280;36499;46.484;13.832;2024-02-04T00:05:50;93608.72;;;3.20;100.00
12471;BME280;36499;46.484;13.832;2024-02-04T00:08:17;93607.47;;;3.15;100.00
12471;BME280;36499;46.484;13.832;2024-02-04T00:10:44;93603.88;;;3.06;100.00
12471;BME280;36499;46.484;13.832;2024-02-04T00:13:10;93605.66;;;3.27;100.00
12471;BME280;36499;46.484;13.832;2024-02-04T00:15:37;93610.09;;;3.24;100.00
12471;BME280;36499;46.484;13.832;2024-02-04T00:18:04;93608.59;;;3.01;100.00
12471;BME280;36499;46.484;13.832;2024-02-04T00:20:31;93604.97;;;3.04;100.00
12471;BME280;36499;46.484;13.832;2024-02-04T00:23:00;93601.38;;;3.16;100.00
12471;BME280;36499;46.484;13.832;2024-02-04T00:25:27;93604.63;;;3.18;100.00
12471;BME280;36499;46.484;13.832;2024-02-04T00:27:54;93598.50;;;3.09;100.00
12471;BME280;36499;46.484;13.832;2024-02-04T00:30:21;93608.03;;;2.98;100.00
12471;BME280;36499;46.484;13.832;2024-02-04T00:32:47;93611.69;;;2.84;100.00
12471;BME280;36499;46.484;13.832;2024-02-04T00:35:14;93612.63;;;2.83;100.00
12471;BME280;36499;46.484;13.832;2024-02-04T00:37:41;93612.28;;;2.87;100.00
12471;BME280;36499;46.484;13.832;2024-02-04T00:40:10;93606.03;;;3.01;100.00
12471;BME280;36499;46.484;13.832;2024-02-04T00:42:37;93604.88;;;3.15;100.00
12471;BME280;36499;46.484;13.832;2024-02-04T00:45:04;93598.63;;;3.29;100.00
12471;BME280;36499;46.484;13.832;2024-02-04T00:47:31;93604.44;;;3.10;100.00
12471;BME280;36499;46.484;13.832;2024-02-04T00:49:58;93605.50;;;2.86;100.00
12471;BME280;36499;46.484;13.832;2024-02-04T00:52:24;93599.84;;;2.72;100.00
12471;BME280;36499;46.484;13.832;2024-02-04T00:54:51;93590.16;;;2.75;100.00
12471;BME280;36499;46.484;13.832;2024-02-04T00:57:19;93597.34;;;2.81;100.00
12471;BME280;36499;46.484;13.832;2024-02-04T00:59:46;93612.84;;;2.91;100.00
12471;BME280;36499;46.484;13.832;2024-02-04T01:02:12;93612.84;;;2.91;100.00
12471;BME280;36499;46.484;13.832;2024-02-04T01:04:39;93610.78;;;2.74;100.00
12471;BME280;36499;46.484;13.832;2024-02-04T01:07:06;93615.94;;;2.74;100.00
12471;BME280;36499;46.484;13.832;2024-02-04T01:09:33;93618.75;;;2.71;100.00
12471;BME280;36499;46.484;13.832;2024-02-04T01:11:59;93621.06;;;2.74;100.00
12471;BME280;36499;46.484;13.832;2024-02-04T01:14:28;93616.94;;;2.82;100.00
12471;BME280;36499;46.484;13.832;2024-02-04T01:16:54;93620.56;;;2.80;100.00
12471;BME280;36499;46.484;13.832;2024-02-04T01:19:21;93619.03;;;2.88;100.00
12471;BME280;36499;46.484;13.832;2024-02-04T01:21:48;93623.34;;;2.88;100.00
12471;BME280;36499;46.484;13.832;2024-02-04T01:24:14;93624.50;;;2.63;100.00
12471;BME280;36499;46.484;13.832;2024-02-04T01:26:41;93624.28;;;2.55;100.00
12471;BME280;36499;46.484;13.832;2024-02-04T01:29:08;93620.56;;;2.59;100.00
12471;BME280;36499;46.484;13.832;2024-02-04T01:31:36;93618.44;;;2.64;100.00
12471;BME280;36499;46.484;13.832;2024-02-04T01:34:03;93621.13;;;2.63;100.00
12471;BME280;36499;46.484;13.832;2024-02-04T01:36:30;93614.00;;;2.66;100.00
12471;BME280;36499;46.484;13.832;2024-02-04T01:38:56;93622.28;;;2.70;100.00
12471;BME280;36499;46.484;13.832;2024-02-04T01:41:23;93621.75;;;2.76;100.00
12471;BME280;36499;46.484;13.832;2024-02-04T01:43:52;93622.41;;;2.68;100.00
12471;BME280;36499;46.484;13.832;2024-02-04T01:46:19;93616.13;;;2.61;100.00
12471;BME280;36499;46.484;13.832;2024-02-04T01:48:47;93621.47;;;2.58;100.00
12471;BME280;36499;46.484;13.832;2024-02-04T01:51:14;93623.69;;;2.63;100.00
12471;BME280;36499;46.484;13.832;2024-02-04T01:53:44;93622.09;;;2.50;100.00
12471;BME280;36499;46.484;13.832;2024-02-04T01:56:13;93629.25;;;2.36;100.00
12471;BME280;36499;46.484;13.832;2024-02-04T01:58:39;93633.34;;;2.27;100.00
12471;BME280;36499;46.484;13.832;2024-02-04T02:01:06;93641.50;;;2.32;100.00
12471;BME280;36499;46.484;13.832;2024-02-04T02:03:34;93639.38;;;2.37;100.00
12471;BME280;36499;46.484;13.832;2024-02-04T02:06:04;93644.13;;;2.42;100.00
12471;BME280;36499;46.484;13.832;2024-02-04T02:08:31;93633.75;;;2.43;100.00
12471;BME280;36499;46.484;13.832;2024-02-04T02:11:05;93633.84;;;2.53;100.00
12471;BME280;36499;46.484;13.832;2024-02-04T02:13:36;93628.97;;;2.50;100.00
12471;BME280;36499;46.484;13.832;2024-02-04T02:16:08;93631.19;;;2.43;100.00
12471;BME280;36499;46.484;13.832;2024-02-04T02:18:43;93630.59;;;2.51;100.00
12471;BME280;36499;46.484;13.832;2024-02-04T02:21:26;93635.69;;;2.62;100.00
12471;BME280;36499;46.484;13.832;2024-02-04T02:24:03;93630.91;;;2.69;100.00
12471;BME280;36499;46.484;13.832;2024-02-04T02:26:35;93630.34;;;2.86;100.00
12471;BME280;36499;46.484;13.832;2024-02-04T02:29:03;93613.47;;;2.72;100.00
12471;BME280;36499;46.484;13.832;2024-02-04T02:31:30;93609.00;;;2.65;100.00
12471;BME280;36499;46.484;13.832;2024-02-04T02:33:57;93611.81;;;2.50;100.00
12471;BME280;36499;46.484;13.832;2024-02-04T02:36:26;93607.34;;;2.32;100.00
12471;BME280;36499;46.484;13.832;2024-02-04T02:38:59;93611.41;;;2.34;100.00
12471;BME280;36499;46.484;13.832;2024-02-04T02:41:29;93613.34;;;2.53;100.00
12471;BME280;36499;46.484;13.832;2024-02-04T02:43:59;93607.63;;;2.49;100.00
12471;BME280;36499;46.484;13.832;2024-02-04T02:46:27;93613.47;;;2.40;100.00
12471;BME280;36499;46.484;13.832;2024-02-04T02:48:54;93603.03;;;2.32;100.00
12471;BME280;36499;46.484;13.832;2024-02-04T02:51:21;93603.34;;;2.39;100.00
12471;BME280;36499;46.484;13.832;2024-02-04T02:53:47;93605.13;;;2.27;100.00
12471;BME280;36499;46.484;13.832;2024-02-04T02:56:14;93592.78;;;2.32;100.00
12471;BME280;36499;46.484;13.832;2024-02-04T02:58:41;93598.25;;;2.28;100.00
12471;BME280;36499;46.484;13.832;2024-02-04T03:01:09;93601.47;;;1.98;100.00
12471;BME280;36499;46.484;13.832;2024-02-04T03:03:35;93582.00;;;1.95;100.00
12471;BME280;36499;46.484;13.832;2024-02-04T03:06:02;93594.94;;;1.94;100.00
12471;BME280;36499;46.484;13.832;2024-02-04T03:08:29;93599.59;;;2.00;100.00
12471;BME280;36499;46.484;13.832;2024-02-04T03:10:56;93596.19;;;2.10;100.00
12471;BME280;36499;46.484;13.832;2024-02-04T03:13:22;93591.53;;;2.15;100.00
12471;BME280;36499;46.484;13.832;2024-02-04T03:15:49;93590.34;;;2.08;100.00
12471;BME280;36499;46.484;13.832;2024-02-04T03:18:17;93588.03;;;2.05;100.00
12471;BME280;36499;46.484;13.832;2024-02-04T03:20:44;93586.91;;;1.87;100.00
12471;BME280;36499;46.484;13.832;2024-02-04T03:23:10;93589.00;;;1.82;100.00
12471;BME280;36499;46.484;13.832;2024-02-04T03:25:37;93580.41;;;1.61;100.00
12471;BME280;36499;46.484;13.832;2024-02-04T03:28:04;93574.25;;;1.52;100.00
12471;BME280;36499;46.484;13.832;2024-02-04T03:30:30;93573.44;;;1.51;100.00
12471;BME280;36499;46.484;13.832;2024-02-04T03:32:57;93571.22;;;1.58;100.00
12471;BME280;36499;46.484;13.832;2024-02-04T03:35:25;93574.00;;;1.66;100.00
12471;BME280;36499;46.484;13.832;2024-02-04T03:37:52;93571.41;;;1.77;100.00
12471;BME280;36499;46.484;13.832;2024-02-04T03:40:18;93568.41;;;1.83;100.00
12471;BME280;36499;46.484;13.832;2024-02-04T03:42:49;93572.00;;;1.81;100.00
12471;BME280;36499;46.484;13.832;2024-02-04T03:45:16;93576.00;;;1.63;100.00
12471;BME280;36499;46.484;13.832;2024-02-04T03:47:43;93581.78;;;1.42;100.00
12471;BME280;36499;46.484;13.832;2024-02-04T03:50:10;93583.44;;;1.43;100.00
12471;BME280;36499;46.484;13.832;2024-02-04T03:52:38;93576.44;;;1.68;100.00
12471;BME280;36499;46.484;13.832;2024-02-04T03:55:06;93572.50;;;1.64;100.00
12471;BME280;36499;46.484;13.832;2024-02-04T03:57:33;93585.28;;;1.41;100.00
12471;BME280;36499;46.484;13.832;2024-02-04T03:59:59;93577.84;;;1.38;100.00
12471;BME280;36499;46.484;13.832;2024-02-04T04:02:26;93570.06;;;1.29;100.00
12471;BME280;36499;46.484;13.832;2024-02-04T04:04:53;93567.94;;;1.22;100.00
12471;BME280;36499;46.484;13.832;2024-02-04T04:07:19;93556.75;;;1.35;100.00
12471;BME280;36499;46.484;13.832;2024-02-04T04:09:47;93546.53;;;1.46;100.00
12471;BME280;36499;46.484;13.832;2024-02-04T04:12:14;93553.88;;;1.28;100.00
12471;BME280;36499;46.484;13.832;2024-02-04T04:14:41;93559.22;;;1.36;100.00
12471;BME280;36499;46.484;13.832;2024-02-04T04:17:07;93555.50;;;1.40;100.00
12471;BME280;36499;46.484;13.832;2024-02-04T04:19:34;93551.75;;;1.33;100.00
12471;BME280;36499;46.484;13.832;2024-02-04T04:22:02;93555.25;;;1.32;100.00
12471;BME280;36499;46.484;13.832;2024-02-04T04:24:29;93565.13;;;1.14;100.00
12471;BME280;36499;46.484;13.832;2024-02-04T04:26:57;93574.25;;;1.30;100.00
12471;BME280;36499;46.484;13.832;2024-02-04T04:29:23;93564.09;;;1.39;100.00
12471;BME280;36499;46.484;13.832;2024-02-04T04:31:51;93558.41;;;1.47;100.00
12471;BME280;36499;46.484;13.832;2024-02-04T04:34:18;93557.22;;;1.40;100.00
12471;BME280;36499;46.484;13.832;2024-02-04T04:36:45;93549.66;;;1.38;100.00
12471;BME280;36499;46.484;13.832;2024-02-04T04:39:12;93552.59;;;1.45;100.00
12471;BME280;36499;46.484;13.832;2024-02-04T04:41:41;93542.34;;;1.56;100.00
12471;BME280;36499;46.484;13.832;2024-02-04T04:44:10;93540.38;;;1.60;100.00
12471;BME280;36499;46.484;13.832;2024-02-04T04:46:37;93536.63;;;1.52;100.00
12471;BME280;36499;46.484;13.832;2024-02-04T04:49:05;93534.78;;;1.54;100.00
12471;BME280;36499;46.484;13.832;2024-02-04T04:51:31;93530.59;;;1.65;100.00
12471;BME280;36499;46.484;13.832;2024-02-04T04:53:59;93532.09;;;1.56;100.00
12471;BME280;36499;46.484;13.832;2024-02-04T04:56:26;93530.69;;;1.41;100.00
12471;BME280;36499;46.484;13.832;2024-02-04T04:58:52;93532.69;;;1.37;100.00
12471;BME280;36499;46.484;13.832;2024-02-04T05:01:20;93536.63;;;1.41;100.00
12471;BME280;36499;46.484;13.832;2024-02-04T05:03:47;93525.81;;;1.49;100.00
12471;BME280;36499;46.484;13.832;2024-02-04T05:06:14;93540.25;;;1.50;100.00
12471;BME280;36499;46.484;13.832;2024-02-04T05:08:40;93534.19;;;1.62;100.00
12471;BME280;36499;46.484;13.832;2024-02-04T05:11:07;93533.94;;;1.76;100.00
12471;BME280;36499;46.484;13.832;2024-02-04T05:13:34;93535.19;;;1.93;100.00
12471;BME280;36499;46.484;13.832;2024-02-04T05:16:00;93529.25;;;1.81;100.00
12471;BME280;36499;46.484;13.832;2024-02-04T05:18:28;93534.09;;;1.64;100.00
12471;BME280;36499;46.484;13.832;2024-02-04T05:20:55;93525.47;;;1.65;100.00
12471;BME280;36499;46.484;13.832;2024-02-04T05:23:22;93546.72;;;1.76;100.00
12471;BME280;36499;46.484;13.832;2024-02-04T05:25:48;93523.56;;;1.78;100.00
12471;BME280;36499;46.484;13.832;2024-02-04T05:28:15;93535.13;;;2.04;100.00
12471;BME280;36499;46.484;13.832;2024-02-04T05:30:42;93547.59;;;2.09;100.00
12471;BME280;36499;46.484;13.832;2024-02-04T05:33:08;93540.03;;;2.07;100.00
12471;BME280;36499;46.484;13.832;2024-02-04T05:35:36;93543.53;;;2.06;100.00
12471;BME280;36499;46.484;13.832;2024-02-04T05:38:03;93540.38;;;2.14;100.00
12471;BME280;36499;46.484;13.832;2024-02-04T05:40:30;93548.84;;;2.26;100.00
12471;BME280;36499;46.484;13.832;2024-02-04T05:42:57;93552.81;;;2.18;100.00
12471;BME280;36499;46.484;13.832;2024-02-04T05:45:23;93555.72;;;2.25;100.00
12471;BME280;36499;46.484;13.832;2024-02-04T05:47:50;93558.63;;;2.32;100.00
12471;BME280;36499;46.484;13.832;2024-02-04T05:50:17;93559.03;;;2.37;100.00
12471;BME280;36499;46.484;13.832;2024-02-04T05:52:45;93563.81;;;2.41;100.00
12471;BME280;36499;46.484;13.832;2024-02-04T05:55:11;93565.38;;;2.33;100.00
12471;BME280;36499;46.484;13.832;2024-02-04T05:57:38;93566.00;;;2.14;100.00
12471;BME280;36499;46.484;13.832;2024-02-04T06:00:06;93566.56;;;2.29;100.00
12471;BME280;36499;46.484;13.832;2024-02-04T06:02:33;93569.16;;;2.49;100.00
12471;BME280;36499;46.484;13.832;2024-02-04T06:05:00;93563.31;;;2.47;100.00
12471;BME280;36499;46.484;13.832;2024-02-04T06:07:26;93573.50;;;2.38;100.00
12471;BME280;36499;46.484;13.832;2024-02-04T06:09:55;93574.03;;;2.52;100.00
12471;BME280;36499;46.484;13.832;2024-02-04T06:12:22;93571.00;;;2.27;100.00
12471;BME280;36499;46.484;13.832;2024-02-04T06:14:49;93568.78;;;2.22;100.00
12471;BME280;36499;46.484;13.832;2024-02-04T06:17:16;93569.38;;;2.14;100.00
12471;BME280;36499;46.484;13.832;2024-02-04T06:19:42;93564.47;;;2.22;100.00
12471;BME280;36499;46.484;13.832;2024-02-04T06:22:09;93564.88;;;2.39;100.00
12471;BME280;36499;46.484;13.832;2024-02-04T06:24:36;93562.13;;;2.31;100.00
12471;BME280;36499;46.484;13.832;2024-02-04T06:27:08;93569.81;;;2.31;100.00
12471;BME280;36499;46.484;13.832;2024-02-04T06:29:34;93572.28;;;2.21;100.00
12471;BME280;36499;46.484;13.832;2024-02-04T06:32:02;93576.00;;;2.17;100.00
12471;BME280;36499;46.484;13.832;2024-02-04T06:34:29;93570.41;;;2.23;100.00
12471;BME280;36499;46.484;13.832;2024-02-04T06:36:56;93573.63;;;2.36;100.00
12471;BME280;36499;46.484;13.832;2024-02-04T06:39:23;93580.13;;;2.40;100.00
12471;BME280;36499;46.484;13.832;2024-02-04T06:41:49;93580.53;;;2.36;100.00
12471;BME280;36499;46.484;13.832;2024-02-04T06:44:17;93584.50;;;2.29;100.00
12471;BME280;36499;46.484;13.832;2024-02-04T06:46:44;93574.88;;;2.10;100.00
12471;BME280;36499;46.484;13.832;2024-02-04T06:49:11;93571.00;;;2.15;100.00
12471;BME280;36499;46.484;13.832;2024-02-04T06:51:43;93573.31;;;2.30;100.00
12471;BME280;36499;46.484;13.832;2024-02-04T06:54:10;93570.44;;;2.44;100.00
12471;BME280;36499;46.484;13.832;2024-02-04T06:56:36;93581.97;;;2.49;100.00
12471;BME280;36499;46.484;13.832;2024-02-04T06:59:03;93580.91;;;2.52;100.00
12471;BME280;36499;46.484;13.832;2024-02-04T07:01:31;93586.06;;;2.52;100.00
12471;BME280;36499;46.484;13.832;2024-02-04T07:03:58;93594.09;;;2.47;100.00
12471;BME280;36499;46.484;13.832;2024-02-04T07:06:37;93598.66;;;2.76;100.00
12471;BME280;36499;46.484;13.832;2024-02-04T07:09:04;93595.59;;;2.82;100.00
12471;BME280;36499;46.484;13.832;2024-02-04T07:11:30;93597.84;;;2.75;100.00
12471;BME280;36499;46.484;13.832;2024-02-04T07:13:58;93596.41;;;2.82;100.00
12471;BME280;36499;46.484;13.832;2024-02-04T07:16:25;93582.78;;;2.82;100.00
12471;BME280;36499;46.484;13.832;2024-02-04T07:18:54;93594.66;;;2.83;100.00
12471;BME280;36499;46.484;13.832;2024-02-04T07:21:21;93576.81;;;2.81;100.00
12471;BME280;36499;46.484;13.832;2024-02-04T07:23:48;93575.09;;;3.03;100.00
12471;BME280;36499;46.484;13.832;2024-02-04T07:26:14;93591.50;;;2.90;100.00
12471;BME280;36499;46.484;13.832;2024-02-04T07:28:41;93588.56;;;2.95;100.00
12471;BME280;36499;46.484;13.832;2024-02-04T07:31:08;93567.06;;;2.96;100.00
12471;BME280;36499;46.484;13.832;2024-02-04T07:33:35;93561.00;;;2.97;100.00
12471;BME280;36499;46.484;13.832;2024-02-04T07:36:03;93563.94;;;3.13;100.00
12471;BME280;36499;46.484;13.832;2024-02-04T07:38:30;93564.75;;;3.14;100.00
12471;BME280;36499;46.484;13.832;2024-02-04T07:40:57;93558.09;;;3.11;100.00
12471;BME280;36499;46.484;13.832;2024-02-04T07:43:24;93572.56;;;3.12;100.00
12471;BME280;36499;46.484;13.832;2024-02-04T07:45:51;93564.31;;;3.09;100.00
12471;BME280;36499;46.484;13.832;2024-02-04T07:48:18;93568.38;;;3.11;100.00
12471;BME280;36499;46.484;13.832;2024-02-04T07:50:45;93562.44;;;3.11;100.00
12471;BME280;36499;46.484;13.832;2024-02-04T07:53:13;93558.66;;;3.15;100.00
12471;BME280;36499;46.484;13.832;2024-02-04T07:55:40;93552.69;;;3.05;100.00
12471;BME280;36499;46.484;13.832;2024-02-04T07:58:07;93563.25;;;3.11;100.00
12471;BME280;36499;46.484;13.832;2024-02-04T08:00:34;93560.94;;;2.87;100.00
12471;BME280;36499;46.484;13.832;2024-02-04T08:03:00;93559.75;;;2.91;100.00
12471;BME280;36499;46.484;13.832;2024-02-04T08:05:27;93565.38;;;3.06;100.00
12471;BME280;36499;46.484;13.832;2024-02-04T08:07:54;93561.34;;;3.13;100.00
12471;BME280;36499;46.484;13.832;2024-02-04T08:10:22;93549.84;;;3.08;100.00
12471;BME280;36499;46.484;13.832;2024-02-04T08:12:48;93553.53;;;3.15;100.00
12471;BME280;36499;46.484;13.832;2024-02-04T08:15:17;93546.94;;;3.22;100.00
12471;BME280;36499;46.484;13.832;2024-02-04T08:17:44;93556.91;;;3.15;100.00
12471;BME280;36499;46.484;13.832;2024-02-04T08:20:12;93562.59;;;3.40;99.51
12471;BME280;36499;46.484;13.832;2024-02-04T08:22:38;93558.22;;;3.61;96.99
12471;BME280;36499;46.484;13.832;2024-02-04T08:25:06;93551.69;;;3.87;97.21
12471;BME280;36499;46.484;13.832;2024-02-04T08:27:34;93545.00;;;4.15;95.72
12471;BME280;36499;46.484;13.832;2024-02-04T08:30:01;93558.19;;;4.51;93.12
12471;BME280;36499;46.484;13.832;2024-02-04T08:32:27;93541.63;;;4.82;90.55
12471;BME280;36499;46.484;13.832;2024-02-04T08:34:54;93545.78;;;5.22;86.84
12471;BME280;36499;46.484;13.832;2024-02-04T08:37:21;93554.19;;;5.24;84.66
12471;BME280;36499;46.484;13.832;2024-02-04T08:39:47;93551.44;;;5.45;83.60
12471;BME280;36499;46.484;13.832;2024-02-04T08:42:15;93556.78;;;5.71;81.57
12471;BME280;36499;46.484;13.832;2024-02-04T08:44:43;93565.78;;;5.84;79.89
12471;BME280;36499;46.484;13.832;2024-02-04T08:47:10;93559.06;;;6.01;77.40
12471;BME280;36499;46.484;13.832;2024-02-04T08:49:39;93557.44;;;6.27;75.61
12471;BME280;36499;46.484;13.832;2024-02-04T08:52:05;93559.41;;;6.61;74.55
12471;BME280;36499;46.484;13.832;2024-02-04T08:54:32;93552.19;;;6.82;77.54
12471;BME280;36499;46.484;13.832;2024-02-04T08:56:59;93568.34;;;7.02;73.34
12471;BME280;36499;46.484;13.832;2024-02-04T08:59:25;93559.41;;;7.14;75.03
12471;BME280;36499;46.484;13.832;2024-02-04T09:01:54;93557.00;;;7.21;69.68
12471;BME280;36499;46.484;13.832;2024-02-04T09:04:20;93564.44;;;7.24;68.51
12471;BME280;36499;46.484;13.832;2024-02-04T09:06:47;93550.25;;;7.46;67.78
12471;BME280;36499;46.484;13.832;2024-02-04T09:09:14;93555.69;;;7.69;71.52
12471;BME280;36499;46.484;13.832;2024-02-04T09:11:40;93561.13;;;7.83;68.82
12471;BME280;36499;46.484;13.832;2024-02-04T09:14:07;93550.31;;;7.96;70.96
12471;BME280;36499;46.484;13.832;2024-02-04T09:16:37;93550.47;;;7.94;68.34
12471;BME280;36499;46.484;13.832;2024-02-04T09:19:05;93555.84;;;8.01;60.87
12471;BME280;36499;46.484;13.832;2024-02-04T09:21:32;93538.91;;;8.15;60.87
12471;BME280;36499;46.484;13.832;2024-02-04T09:23:58;93547.38;;;8.33;63.88
12471;BME280;36499;46.484;13.832;2024-02-04T09:26:25;93541.69;;;8.29;67.53
12471;BME280;36499;46.484;13.832;2024-02-04T09:28:52;93535.06;;;8.27;65.97
12471;BME280;36499;46.484;13.832;2024-02-04T09:31:18;93540.00;;;8.46;69.01
12471;BME280;36499;46.484;13.832;2024-02-04T09:33:45;93535.34;;;8.58;70.72
12471;BME280;36499;46.484;13.832;2024-02-04T09:36:13;93539.72;;;8.57;71.42
12471;BME280;36499;46.484;13.832;2024-02-04T09:38:40;93546.38;;;8.76;65.44
12471;BME280;36499;46.484;13.832;2024-02-04T09:41:06;93550.25;;;8.97;67.97
12471;BME280;36499;46.484;13.832;2024-02-04T09:43:35;93558.22;;;9.19;67.58
12471;BME280;36499;46.484;13.832;2024-02-04T09:46:02;93561.97;;;9.25;67.20
12471;BME280;36499;46.484;13.832;2024-02-04T09:48:31;93550.94;;;9.23;68.00
12471;BME280;36499;46.484;13.832;2024-02-04T09:50:59;93560.78;;;9.36;71.67
12471;BME280;36499;46.484;13.832;2024-02-04T09:53:34;93563.06;;;9.47;72.96
12471;BME280;36499;46.484;13.832;2024-02-04T09:56:02;93565.00;;;9.45;70.82
12471;BME280;36499;46.484;13.832;2024-02-04T09:58:31;93557.19;;;9.69;72.42
12471;BME280;36499;46.484;13.832;2024-02-04T10:00:59;93543.44;;;9.60;67.13
12471;BME280;36499;46.484;13.832;2024-02-04T10:03:26;93561.28;;;9.55;69.13
12471;BME280;36499;46.484;13.832;2024-02-04T10:05:53;93551.19;;;9.69;63.29
12471;BME280;36499;46.484;13.832;2024-02-04T10:08:20;93562.91;;;9.56;61.22
12471;BME280;36499;46.484;13.832;2024-02-04T10:10:48;93546.69;;;9.63;68.78
12471;BME280;36499;46.484;13.832;2024-02-04T10:13:15;93541.16;;;9.49;70.01
12471;BME280;36499;46.484;13.832;2024-02-04T10:15:42;93553.81;;;9.44;65.37
12471;BME280;36499;46.484;13.832;2024-02-04T10:18:09;93552.03;;;9.53;60.87
12471;BME280;36499;46.484;13.832;2024-02-04T10:20:36;93545.34;;;9.67;66.94
12471;BME280;36499;46.484;13.832;2024-02-04T10:23:03;93548.38;;;9.94;64.98
12471;BME280;36499;46.484;13.832;2024-02-04T10:25:30;93547.56;;;9.86;64.30
12471;BME280;36499;46.484;13.832;2024-02-04T10:27:58;93536.69;;;9.90;67.63
12471;BME280;36499;46.484;13.832;2024-02-04T10:30:25;93527.69;;;10.17;62.80
12471;BME280;36499;46.484;13.832;2024-02-04T10:32:53;93520.00;;;10.32;61.51
12471;BME280;36499;46.484;13.832;2024-02-04T10:35:20;93513.75;;;10.41;62.92
12471;BME280;36499;46.484;13.832;2024-02-04T10:37:48;93513.44;;;10.44;66.34
12471;BME280;36499;46.484;13.832;2024-02-04T10:40:15;93501.59;;;10.42;68.10
12471;BME280;36499;46.484;13.832;2024-02-04T10:42:43;93494.81;;;10.64;62.31
12471;BME280;36499;46.484;13.832;2024-02-04T10:45:11;93489.28;;;11.04;64.05
12471;BME280;36499;46.484;13.832;2024-02-04T10:47:40;93486.38;;;11.22;61.27
12471;BME280;36499;46.484;13.832;2024-02-04T10:50:08;93485.88;;;11.41;52.92
12471;BME280;36499;46.484;13.832;2024-02-04T10:52:36;93481.59;;;11.78;49.69
12471;BME280;36499;46.484;13.832;2024-02-04T10:55:07;93477.22;;;11.93;47.17
12471;BME280;36499;46.484;13.832;2024-02-04T10:57:34;93476.91;;;12.17;47.58
12471;BME280;36499;46.484;13.832;2024-02-04T11:00:02;93478.03;;;12.29;47.38
12471;BME280;36499;46.484;13.832;2024-02-04T11:02:35;93470.19;;;12.44;45.92
12471;BME280;36499;46.484;13.832;2024-02-04T11:05:03;93476.72;;;12.55;45.17
12471;BME280;36499;46.484;13.832;2024-02-04T11:07:32;93470.50;;;12.71;44.53
12471;BME280;36499;46.484;13.832;2024-02-04T11:09:59;93480.41;;;12.82;43.54
12471;BME280;36499;46.484;13.832;2024-02-04T11:12:27;93482.66;;;12.85;43.10
12471;BME280;36499;46.484;13.832;2024-02-04T11:14:58;93476.13;;;12.95;42.42
12471;BME280;36499;46.484;13.832;2024-02-04T11:17:42;93480.28;;;12.90;42.15
12471;BME280;36499;46.484;13.832;2024-02-04T11:20:30;93485.16;;;12.93;41.74
12471;BME280;36499;46.484;13.832;2024-02-04T11:25:55;93464.03;;;13.09;43.26
12471;BME280;36499;46.484;13.832;2024-02-04T11:28:23;93470.88;;;13.17;41.96
12471;BME280;36499;46.484;13.832;2024-02-04T11:30:51;93460.06;;;13.20;42.16
12471;BME280;36499;46.484;13.832;2024-02-04T11:33:21;93456.09;;;13.24;41.55
12471;BME280;36499;46.484;13.832;2024-02-04T11:35:58;93457.66;;;13.18;41.31
12471;BME280;36499;46.484;13.832;2024-02-04T11:38:30;93450.19;;;13.15;41.52
12471;BME280;36499;46.484;13.832;2024-02-04T11:40:57;93459.22;;;13.13;42.79
12471;BME280;36499;46.484;13.832;2024-02-04T11:43:24;93456.91;;;13.24;42.60
12471;BME280;36499;46.484;13.832;2024-02-04T11:45:52;93454.22;;;13.39;42.48
12471;BME280;36499;46.484;13.832;2024-02-04T11:48:29;93458.25;;;13.48;42.64
12471;BME280;36499;46.484;13.832;2024-02-04T11:50:57;93452.09;;;13.56;41.65
12471;BME280;36499;46.484;13.832;2024-02-04T11:53:24;93449.47;;;13.56;42.91
12471;BME280;36499;46.484;13.832;2024-02-04T11:55:54;93440.53;;;13.72;41.33
12471;BME280;36499;46.484;13.832;2024-02-04T11:58:21;93440.97;;;13.75;40.97
12471;BME280;36499;46.484;13.832;2024-02-04T12:00:51;93432.78;;;13.85;40.55
12471;BME280;36499;46.484;13.832;2024-02-04T12:03:30;93426.97;;;13.89;41.28
12471;BME280;36499;46.484;13.832;2024-02-04T12:05:57;93431.44;;;13.95;41.28
12471;BME280;36499;46.484;13.832;2024-02-04T12:08:24;93430.06;;;14.00;40.24
12471;BME280;36499;46.484;13.832;2024-02-04T12:10:51;93430.09;;;14.06;41.75
12471;BME280;36499;46.484;13.832;2024-02-04T12:13:18;93428.50;;;14.12;40.45
12471;BME280;36499;46.484;13.832;2024-02-04T12:15:46;93418.84;;;14.12;40.45
12471;BME280;36499;46.484;13.832;2024-02-04T12:18:14;93420.47;;;14.13;39.60
12471;BME280;36499;46.484;13.832;2024-02-04T12:20:46;93420.91;;;14.30;41.84
12471;BME280;36499;46.484;13.832;2024-02-04T12:23:14;93417.72;;;14.35;43.03
12471;BME280;36499;46.484;13.832;2024-02-04T12:25:41;93410.09;;;14.40;41.60
12471;BME280;36499;46.484;13.832;2024-02-04T12:28:08;93412.69;;;14.40;40.62
12471;BME280;36499;46.484;13.832;2024-02-04T12:30:35;93409.88;;;14.41;39.67
12471;BME280;36499;46.484;13.832;2024-02-04T12:33:03;93398.41;;;14.49;40.49
12471;BME280;36499;46.484;13.832;2024-02-04T12:35:30;93389.97;;;14.53;39.79
12471;BME280;36499;46.484;13.832;2024-02-04T12:37:59;93386.16;;;14.56;41.33
12471;BME280;36499;46.484;13.832;2024-02-04T12:40:27;93375.09;;;14.41;43.35
12471;BME280;36499;46.484;13.832;2024-02-04T12:42:55;93380.50;;;14.39;40.68
12471;BME280;36499;46.484;13.832;2024-02-04T12:45:22;93374.91;;;14.42;42.65
12471;BME280;36499;46.484;13.832;2024-02-04T12:47:50;93376.50;;;14.37;42.39
12471;BME280;36499;46.484;13.832;2024-02-04T12:50:17;93369.84;;;14.41;41.52
12471;BME280;36499;46.484;13.832;2024-02-04T12:52:45;93364.63;;;14.41;40.06
12471;BME280;36499;46.484;13.832;2024-02-04T12:55:25;93357.41;;;14.43;42.44
12471;BME280;36499;46.484;13.832;2024-02-04T12:58:01;93358.78;;;14.39;40.63